Time;durP1;ratioP1;P1;durP2;ratioP2;P2;SDS_P1;SDS_P2;PMS_P1;PMS_P2;Temp;Humidity;BMP_temperature;BMP_pressure;BME280_temperature;BME280_humidity;BME280_pressure;Samples;Min_cycle;Max_cycle;Signal;HPM_P1;HPM_P2
2023/06/10 00:00:43;;;;;;;8.25;6.68;;;;;;;21.98;66.20;101248.88;4989762;28;20482;-62
2023/06/10 00:03:09;;;;;;;6.25;5.57;;;;;;;21.92;66.80;101247.16;4990138;28;20058;-62
2023/06/10 00:05:35;;;;;;;6.00;5.18;;;;;;;21.89;66.72;101252.47;4989703;28;20073;-62
2023/06/10 00:08:06;;;;;;;6.15;5.65;;;;;;;21.81;68.95;101247.25;4989598;28;20026;-62
2023/06/10 00:10:35;;;;;;;6.13;5.22;;;;;;;21.75;68.70;101247.28;4989430;28;20062;-62
2023/06/10 00:13:02;;;;;;;7.00;6.32;;;;;;;21.68;70.02;101249.06;4989950;28;20026;-62
2023/06/10 00:15:27;;;;;;;5.80;5.35;;;;;;;21.59;69.21;101256.19;4989689;28;20030;-63
2023/06/10 00:17:54;;;;;;;6.65;5.75;;;;;;;21.55;69.58;101248.31;4989443;28;20088;-62
2023/06/10 00:20:23;;;;;;;6.15;5.55;;;;;;;21.51;69.09;101258.00;4989314;28;20053;-62
2023/06/10 00:22:49;;;;;;;7.05;5.80;;;;;;;21.46;68.77;101254.53;4989751;28;20530;-62
2023/06/10 00:25:14;;;;;;;5.82;5.32;;;;;;;21.42;70.03;101253.69;4989516;28;20026;-62
2023/06/10 00:27:40;;;;;;;6.90;6.20;;;;;;;21.39;70.72;101255.47;4989778;28;20030;-62
2023/06/10 00:30:06;;;;;;;6.40;5.80;;;;;;;21.32;70.42;101255.50;4989178;28;20521;-62
2023/06/10 00:32:35;;;;;;;6.72;6.03;;;;;;;21.26;69.83;101263.44;4989715;28;20109;-61
2023/06/10 00:35:01;;;;;;;6.90;5.70;;;;;;;21.19;71.36;101265.22;4989648;28;20046;-62
2023/06/10 00:37:28;;;;;;;6.20;5.70;;;;;;;21.11;73.27;101249.47;4988804;28;20471;-61
2023/06/10 00:39:53;;;;;;;7.35;6.05;;;;;;;21.03;73.04;101256.53;4988882;28;20033;-62
2023/06/10 00:42:19;;;;;;;7.15;6.45;;;;;;;20.97;73.35;101262.72;4989252;28;20470;-62
2023/06/10 00:44:44;;;;;;;6.95;6.35;;;;;;;20.95;74.11;101258.34;4989111;28;20491;-62
2023/06/10 00:47:10;;;;;;;7.57;6.32;;;;;;;20.88;73.36;101262.72;4989182;28;20104;-62
2023/06/10 00:49:35;;;;;;;6.50;5.97;;;;;;;20.82;75.09;101260.13;4989016;28;20064;-62
2023/06/10 00:52:04;;;;;;;6.65;6.05;;;;;;;20.75;74.89;101261.91;4989073;28;20027;-62
2023/06/10 00:54:30;;;;;;;7.68;6.00;;;;;;;20.70;74.92;101266.31;4989218;28;20382;-61
2023/06/10 00:56:56;;;;;;;6.95;6.35;;;;;;;20.64;76.63;101264.56;4987890;28;20487;-62
2023/06/10 00:59:21;;;;;;;7.38;5.75;;;;;;;20.57;76.26;101263.72;4988682;28;20030;-62
2023/06/10 01:01:47;;;;;;;6.38;5.88;;;;;;;20.52;76.01;101257.59;4989124;28;20029;-62
2023/06/10 01:04:13;;;;;;;6.78;6.22;;;;;;;20.45;77.38;101259.38;4989125;28;20022;-62
2023/06/10 01:07:12;;;;;;;6.78;6.18;;;;;;;20.43;76.68;101260.25;4988750;28;20022;-62
2023/06/10 01:09:47;;;;;;;6.20;5.70;;;;;;;20.36;75.79;101262.88;4988820;28;20030;-62
2023/06/10 01:12:48;;;;;;;7.63;6.78;;;;;;;20.31;77.45;101255.91;4988426;28;20549;-62
2023/06/10 01:15:14;;;;;;;6.78;6.13;;;;;;;20.23;78.99;101259.44;4988840;28;20481;-62
2023/06/10 01:18:01;;;;;;;7.28;6.20;;;;;;;20.20;77.98;101258.56;4988573;28;20022;-62
2023/06/10 01:20:28;;;;;;;9.05;6.00;;;;;;;20.16;79.03;101263.78;4988475;28;20105;-62
2023/06/10 01:22:57;;;;;;;7.05;6.45;;;;;;;20.10;78.15;101257.69;4988748;28;20033;-62
2023/06/10 01:25:27;;;;;;;7.05;6.35;;;;;;;20.06;78.93;101264.69;4989053;28;20030;-62
2023/06/10 01:28:00;;;;;;;7.18;6.57;;;;;;;20.01;79.73;101263.78;4988345;28;20030;-61
2023/06/10 01:30:33;;;;;;;6.57;6.07;;;;;;;19.94;80.78;101262.03;4988768;28;20486;-61
2023/06/10 01:33:00;;;;;;;7.95;7.20;;;;;;;19.91;78.96;101253.28;4988587;28;20045;-62
2023/06/10 01:35:28;;;;;;;7.13;6.45;;;;;;;19.92;78.01;101265.56;4987916;28;20043;-62
2023/06/10 01:37:56;;;;;;;6.93;6.32;;;;;;;19.94;78.37;101256.78;4988697;28;20113;-62
2023/06/10 01:40:23;;;;;;;8.25;6.65;;;;;;;19.96;77.10;101262.91;4988827;28;20257;-61
2023/06/10 01:42:49;;;;;;;7.47;6.85;;;;;;;19.95;77.80;101269.94;4988542;28;20477;-61
2023/06/10 01:45:14;;;;;;;7.53;6.82;;;;;;;19.90;78.95;101272.56;4988502;28;20037;-62
2023/06/10 01:47:39;;;;;;;7.13;6.53;;;;;;;19.85;79.02;101269.06;4988090;28;20225;-61
2023/06/10 01:50:05;;;;;;;8.10;7.13;;;;;;;19.78;77.71;101268.19;4988281;28;20022;-62
2023/06/10 01:52:30;;;;;;;7.47;6.78;;;;;;;19.75;79.43;101267.31;4988393;28;20050;-61
2023/06/10 01:54:56;;;;;;;7.68;6.88;;;;;;;19.73;78.72;101267.31;4988773;28;20025;-60
2023/06/10 01:57:21;;;;;;;7.63;6.93;;;;;;;19.70;79.74;101269.94;4988606;28;20100;-62
2023/06/10 01:59:46;;;;;;;7.90;7.13;;;;;;;19.68;78.71;101267.28;4988961;28;20030;-61
2023/06/10 02:02:11;;;;;;;7.72;7.03;;;;;;;19.70;79.52;101269.94;4988965;28;20022;-62
2023/06/10 02:04:37;;;;;;;8.10;7.30;;;;;;;19.69;79.49;101273.44;4989304;28;20068;-61
2023/06/10 02:07:04;;;;;;;8.80;7.13;;;;;;;19.65;78.96;101266.41;4989152;28;20110;-62
2023/06/10 02:09:30;;;;;;;7.80;7.15;;;;;;;19.63;79.65;101273.41;4988493;28;20034;-61
2023/06/10 02:11:55;;;;;;;8.50;7.80;;;;;;;19.59;79.64;101277.78;4989175;28;20061;-62
2023/06/10 02:14:20;;;;;;;8.75;7.85;;;;;;;19.55;80.16;101273.44;4988998;28;20778;-62
2023/06/10 02:16:46;;;;;;;10.50;8.02;;;;;;;19.51;80.58;101283.06;4988882;28;20474;-62
2023/06/10 02:19:12;;;;;;;8.18;7.47;;;;;;;19.48;80.63;101279.56;4988821;28;20022;-61
2023/06/10 02:21:38;;;;;;;8.27;7.45;;;;;;;19.44;81.58;101276.03;4988616;28;20018;-61
2023/06/10 02:24:04;;;;;;;9.15;7.88;;;;;;;19.39;81.41;101281.25;4988960;28;20057;-62
2023/06/10 02:26:29;;;;;;;8.32;7.63;;;;;;;19.36;81.17;101281.28;4988735;28;20027;-61
2023/06/10 02:28:54;;;;;;;8.73;7.95;;;;;;;19.34;81.33;101287.41;4988741;28;20027;-61
2023/06/10 02:31:20;;;;;;;9.02;8.23;;;;;;;19.30;82.31;101276.00;4991880;28;20176;-62
2023/06/10 02:33:46;;;;;;;9.20;8.20;;;;;;;19.28;82.49;101278.66;4992233;28;20042;-61
2023/06/10 02:36:15;;;;;;;8.95;8.10;;;;;;;19.25;82.84;101285.63;4992280;28;20054;-62
2023/06/10 02:38:41;;;;;;;9.60;8.68;;;;;;;19.23;82.50;101285.59;4992266;28;20026;-62
2023/06/10 02:41:06;;;;;;;8.88;8.05;;;;;;;19.19;83.86;101283.88;4991857;28;20417;-61
2023/06/10 02:43:31;;;;;;;10.02;8.70;;;;;;;19.13;84.73;101287.34;4992113;28;20165;-62
2023/06/10 02:45:57;;;;;;;9.40;8.50;;;;;;;19.10;84.90;101289.03;4991797;28;20156;-61
2023/06/10 02:48:24;;;;;;;9.88;8.98;;;;;;;19.06;85.16;101286.41;4991754;28;20026;-62
2023/06/10 02:50:49;;;;;;;10.07;9.13;;;;;;;19.03;85.65;101282.91;4992471;28;20360;-62
2023/06/10 02:53:15;;;;;;;9.52;8.77;;;;;;;18.96;86.06;101277.63;4992538;28;20037;-62
2023/06/10 02:55:40;;;;;;;9.63;8.68;;;;;;;18.91;85.96;101281.97;4992347;28;20042;-61
2023/06/10 02:58:06;;;;;;;9.82;8.88;;;;;;;18.89;85.81;101281.06;4991630;28;20308;-61
2023/06/10 03:00:33;;;;;;;10.10;8.82;;;;;;;18.86;86.70;101281.06;4991814;28;20038;-62
2023/06/10 03:03:00;;;;;;;10.30;9.40;;;;;;;18.84;86.72;101282.81;4991959;28;20014;-62
2023/06/10 03:05:25;;;;;;;11.50;9.25;;;;;;;18.84;87.04;101288.94;4991735;28;20026;-61
2023/06/10 03:07:51;;;;;;;9.73;8.80;;;;;;;18.79;87.78;101284.53;4990961;28;20026;-61
2023/06/10 03:10:16;;;;;;;9.65;8.75;;;;;;;18.73;89.04;101285.38;4990243;28;20076;-60
2023/06/10 03:12:41;;;;;;;9.23;8.50;;;;;;;18.68;89.14;101282.75;4990009;28;20031;-61
2023/06/10 03:15:07;;;;;;;10.55;8.90;;;;;;;18.64;89.45;101286.22;4989991;28;20040;-62
2023/06/10 03:17:32;;;;;;;9.50;8.70;;;;;;;18.61;90.12;101283.59;4990228;28;20030;-62
2023/06/10 03:19:57;;;;;;;11.10;9.93;;;;;;;18.56;90.77;101293.19;4989852;28;20056;-62
2023/06/10 03:22:22;;;;;;;9.90;8.90;;;;;;;18.47;91.54;101289.59;4989271;28;20147;-61
2023/06/10 03:24:50;;;;;;;10.07;9.10;;;;;;;18.41;92.57;101284.34;4990036;28;20026;-62
2023/06/10 03:27:16;;;;;;;9.88;9.02;;;;;;;18.39;92.96;101291.31;4988265;28;20026;-61
2023/06/10 03:29:41;;;;;;;10.68;9.60;;;;;;;18.36;93.11;101292.19;4989870;28;20474;-61
2023/06/10 03:32:07;;;;;;;10.48;9.48;;;;;;;18.37;93.05;101293.06;4991280;28;20035;-62
2023/06/10 03:34:33;;;;;;;13.00;9.90;;;;;;;18.38;93.00;101297.44;4991570;28;20084;-62
2023/06/10 03:36:59;;;;;;;10.95;9.95;;;;;;;18.36;93.40;101302.69;4990866;28;20027;-62
2023/06/10 03:39:25;;;;;;;10.20;9.30;;;;;;;18.33;94.20;101307.88;4991661;28;20030;-62
2023/06/10 03:41:50;;;;;;;10.30;9.30;;;;;;;18.28;94.21;101309.59;4991362;28;20029;-62
2023/06/10 03:44:16;;;;;;;10.38;9.43;;;;;;;18.30;94.00;101309.59;4991376;28;20482;-61
2023/06/10 03:46:42;;;;;;;10.27;9.48;;;;;;;18.30;95.00;101312.22;4991291;28;20113;-61
2023/06/10 03:49:07;;;;;;;11.02;9.93;;;;;;;18.28;94.06;101313.97;4990508;28;20026;-61
2023/06/10 03:51:32;;;;;;;10.43;9.55;;;;;;;18.27;94.93;101306.97;4991073;28;20030;-62
2023/06/10 03:53:58;;;;;;;11.55;10.55;;;;;;;18.28;94.01;101313.97;4991177;28;20463;-61
2023/06/10 03:56:23;;;;;;;10.95;9.90;;;;;;;18.29;94.33;101305.25;4991012;28;20037;-61
2023/06/10 03:58:48;;;;;;;12.07;10.80;;;;;;;18.31;95.65;101319.25;4990872;28;20088;-61
2023/06/10 04:01:14;;;;;;;11.88;10.70;;;;;;;18.30;95.20;101317.47;4990961;28;20510;-61
2023/06/10 04:03:41;;;;;;;11.68;10.57;;;;;;;18.31;94.46;101308.75;4989711;28;20037;-62
2023/06/10 04:06:07;;;;;;;11.40;10.40;;;;;;;18.29;94.57;101310.50;4990138;28;20081;-62
2023/06/10 04:08:32;;;;;;;12.10;10.95;;;;;;;18.29;94.25;101310.50;4990040;28;20034;-61
2023/06/10 04:10:58;;;;;;;11.85;10.57;;;;;;;18.29;94.67;101305.25;4990033;28;20022;-61
2023/06/10 04:13:23;;;;;;;11.57;10.48;;;;;;;18.31;94.09;101311.38;4990125;28;20034;-62
2023/06/10 04:15:48;;;;;;;12.73;11.57;;;;;;;18.31;94.01;101311.38;4989498;28;20112;-62
2023/06/10 04:18:14;;;;;;;12.48;11.38;;;;;;;18.33;93.97;101313.13;4989943;28;20097;-61
2023/06/10 04:20:40;;;;;;;12.43;11.15;;;;;;;18.34;93.80;101312.28;4990245;28;20467;-61
2023/06/10 04:23:05;;;;;;;12.65;11.48;;;;;;;18.35;94.35;101321.00;4990184;28;20021;-62
2023/06/10 04:25:30;;;;;;;11.65;10.45;;;;;;;18.36;94.06;101323.66;4990172;28;20147;-61
2023/06/10 04:27:56;;;;;;;12.20;10.95;;;;;;;18.36;94.56;101328.03;4989544;28;20273;-61
2023/06/10 04:30:21;;;;;;;11.55;10.38;;;;;;;18.35;93.98;101328.88;4989959;28;20609;-61
2023/06/10 04:32:47;;;;;;;12.65;10.93;;;;;;;18.36;93.92;101330.66;4989548;28;20113;-62
2023/06/10 04:35:13;;;;;;;10.70;9.77;;;;;;;18.36;94.16;101330.66;4988247;28;20073;-60
2023/06/10 04:37:39;;;;;;;12.25;11.10;;;;;;;18.39;93.26;101338.53;4989599;28;20467;-61
2023/06/10 04:40:06;;;;;;;11.88;10.70;;;;;;;18.39;93.99;101333.28;4988914;28;20037;-61
2023/06/10 04:42:31;;;;;;;11.48;10.48;;;;;;;18.43;93.39;101340.31;4989119;28;20034;-62
2023/06/10 04:44:57;;;;;;;12.35;11.25;;;;;;;18.45;93.47;101338.59;4989229;28;20033;-61
2023/06/10 04:47:22;;;;;;;12.30;10.45;;;;;;;18.46;92.81;101335.09;4989391;28;20105;-62
2023/06/10 04:49:48;;;;;;;11.05;9.88;;;;;;;18.50;92.59;101335.09;4989345;28;20542;-61
2023/06/10 04:52:13;;;;;;;12.02;10.80;;;;;;;18.54;93.14;101332.53;4987772;28;20533;-61
2023/06/10 04:54:39;;;;;;;11.32;10.23;;;;;;;18.57;92.28;101331.66;4989294;28;20041;-61
2023/06/10 04:57:06;;;;;;;11.90;10.35;;;;;;;18.60;92.34;101340.44;4989360;28;20026;-62
2023/06/10 04:59:31;;;;;;;10.45;9.48;;;;;;;18.64;91.31;101337.81;4988981;28;20054;-62
2023/06/10 05:01:57;;;;;;;10.45;9.45;;;;;;;18.69;91.32;101341.38;4989430;28;20537;-61
2023/06/10 05:04:22;;;;;;;10.45;9.45;;;;;;;18.72;91.56;101337.03;4989178;28;20034;-62
2023/06/10 05:06:47;;;;;;;11.27;10.30;;;;;;;18.77;91.23;101337.03;4988547;28;20085;-62
2023/06/10 05:09:13;;;;;;;10.32;9.30;;;;;;;18.81;91.48;101345.81;4989141;28;20752;-61
2023/06/10 05:11:38;;;;;;;11.88;9.93;;;;;;;18.84;91.55;101337.94;4989161;28;20022;-61
2023/06/10 05:14:03;;;;;;;12.00;9.80;;;;;;;18.87;89.73;101337.94;4988801;28;20064;-62
2023/06/10 05:16:29;;;;;;;10.15;9.23;;;;;;;18.92;90.34;101345.88;4988639;28;20395;-61
2023/06/10 05:18:54;;;;;;;10.95;9.32;;;;;;;18.99;90.17;101341.50;4988754;28;20394;-62
2023/06/10 05:21:20;;;;;;;10.95;9.88;;;;;;;19.06;90.68;101340.69;4988614;28;20072;-61
2023/06/10 05:23:46;;;;;;;11.27;9.68;;;;;;;19.11;89.94;101341.56;4988873;28;20389;-61
2023/06/10 05:26:11;;;;;;;10.75;9.70;;;;;;;19.17;88.39;101339.03;4988484;28;20026;-61
2023/06/10 05:28:37;;;;;;;11.52;10.48;;;;;;;19.24;88.66;101339.03;4987593;28;20411;-61
2023/06/10 05:31:02;;;;;;;11.95;10.77;;;;;;;19.28;88.59;101340.81;4987745;28;20029;-62
2023/06/10 05:33:28;;;;;;;10.23;9.32;;;;;;;19.35;87.21;101341.69;4988760;28;20505;-61
2023/06/10 05:35:53;;;;;;;11.50;10.32;;;;;;;19.39;87.01;101344.31;4988309;28;20425;-62
2023/06/10 05:38:18;;;;;;;11.40;9.48;;;;;;;19.48;86.72;101348.72;4988665;28;20026;-62
2023/06/10 05:40:43;;;;;;;10.77;8.85;;;;;;;19.56;86.74;101343.50;4987889;28;20030;-61
2023/06/10 05:43:09;;;;;;;11.35;9.10;;;;;;;19.63;85.42;101340.00;4988402;28;20037;-62
2023/06/10 05:45:34;;;;;;;10.15;9.15;;;;;;;19.70;85.55;101337.41;4988901;28;20621;-62
2023/06/10 05:48:00;;;;;;;10.95;9.70;;;;;;;19.75;85.12;101338.28;4988515;28;20065;-61
2023/06/10 05:50:25;;;;;;;10.88;9.82;;;;;;;19.82;85.47;101340.06;4988627;28;20495;-61
2023/06/10 05:52:53;;;;;;;11.07;9.95;;;;;;;19.89;84.41;101344.44;4987865;28;20030;-62
2023/06/10 05:55:18;;;;;;;10.00;9.10;;;;;;;19.96;83.63;101345.31;4987238;28;20034;-61
2023/06/10 05:57:44;;;;;;;11.20;10.13;;;;;;;20.03;84.14;101343.56;4988652;28;20034;-61
2023/06/10 06:00:09;;;;;;;9.13;8.20;;;;;;;20.12;83.62;101346.25;4988687;28;20019;-62
2023/06/10 06:02:35;;;;;;;11.25;10.23;;;;;;;20.20;82.51;101348.84;4988054;28;20014;-62
2023/06/10 06:05:00;;;;;;;13.02;10.70;;;;;;;20.28;83.15;101347.13;4992153;28;20029;-62
2023/06/10 06:07:26;;;;;;;13.00;9.82;;;;;;;20.35;81.55;101347.09;4992718;28;20065;-61
2023/06/10 06:09:51;;;;;;;11.52;10.13;;;;;;;20.44;81.37;101346.19;4992931;28;20058;-62
2023/06/10 06:12:16;;;;;;;10.85;9.85;;;;;;;20.52;81.23;101350.56;4992426;28;20056;-61
2023/06/10 06:14:42;;;;;;;8.98;8.05;;;;;;;20.59;80.46;101340.94;4992903;28;20026;-62
2023/06/10 06:17:07;;;;;;;12.63;8.52;;;;;;;20.70;80.64;101334.75;4992614;28;20037;-62
2023/06/10 06:19:33;;;;;;;10.52;9.40;;;;;;;20.76;81.58;101343.50;4992766;28;20540;-62
2023/06/10 06:21:58;;;;;;;10.20;9.05;;;;;;;20.86;78.34;101343.50;4992616;28;20031;-62
2023/06/10 06:24:24;;;;;;;10.63;9.07;;;;;;;20.95;78.43;101348.78;4992574;28;20069;-62
2023/06/10 06:26:49;;;;;;;11.18;8.65;;;;;;;21.07;78.19;101352.22;4992519;28;20037;-62
2023/06/10 06:29:14;;;;;;;10.38;9.20;;;;;;;21.14;76.60;101348.69;4992158;28;20030;-62
2023/06/10 06:31:40;;;;;;;9.13;8.07;;;;;;;21.25;76.35;101351.28;4992623;28;20364;-62
2023/06/10 06:34:05;;;;;;;9.32;8.43;;;;;;;21.34;76.61;101356.50;4991696;28;20026;-62
2023/06/10 06:36:30;;;;;;;9.18;8.32;;;;;;;21.46;76.21;101355.56;4992101;28;20054;-62
2023/06/10 06:38:56;;;;;;;9.63;8.52;;;;;;;21.61;74.12;101361.63;4992381;28;20030;-62
2023/06/10 06:41:21;;;;;;;11.02;7.82;;;;;;;21.68;73.44;101357.19;4992290;28;20030;-61
2023/06/10 06:43:47;;;;;;;11.60;7.90;;;;;;;21.75;72.80;101361.53;4992218;28;20136;-62
2023/06/10 06:46:12;;;;;;;10.50;8.48;;;;;;;21.82;72.18;101355.38;4991631;28;20023;-61
2023/06/10 06:48:37;;;;;;;10.85;8.73;;;;;;;21.89;71.19;101357.97;4992194;28;20350;-62
2023/06/10 06:51:03;;;;;;;10.27;8.05;;;;;;;21.97;71.65;101360.53;4991934;28;20034;-62
2023/06/10 06:53:28;;;;;;;8.88;7.97;;;;;;;22.07;71.19;101362.25;4991951;28;20390;-62
2023/06/10 06:55:53;;;;;;;10.82;8.30;;;;;;;22.15;70.45;101362.16;4991948;28;20031;-62
2023/06/10 06:58:18;;;;;;;7.75;6.53;;;;;;;22.29;71.63;101356.75;4991599;28;20113;-62
2023/06/10 07:00:44;;;;;;;8.23;7.30;;;;;;;22.45;71.22;101357.47;4991945;28;20537;-63
2023/06/10 07:03:09;;;;;;;8.02;7.22;;;;;;;22.61;69.73;101358.19;4992257;28;20035;-63
2023/06/10 07:05:34;;;;;;;7.32;6.63;;;;;;;22.74;67.94;101358.13;4991503;28;20037;-62
2023/06/10 07:08:00;;;;;;;8.00;7.18;;;;;;;22.86;67.99;101368.56;4991811;28;20081;-62
2023/06/10 07:10:26;;;;;;;7.07;6.38;;;;;;;22.98;68.59;101369.28;4991927;28;20165;-62
2023/06/10 07:12:52;;;;;;;8.65;7.45;;;;;;;23.11;66.36;101370.91;4991549;28;20069;-62
2023/06/10 07:15:17;;;;;;;7.75;6.65;;;;;;;23.20;64.91;101375.22;4991108;28;20036;-62
2023/06/10 07:17:43;;;;;;;7.78;6.40;;;;;;;23.27;63.79;101379.53;4991243;28;20030;-62
2023/06/10 07:20:09;;;;;;;6.97;6.30;;;;;;;23.36;63.58;101377.63;4991627;28;20033;-62
2023/06/10 07:22:35;;;;;;;9.77;7.68;;;;;;;23.46;63.31;101378.41;4991230;28;20033;-62
2023/06/10 07:25:00;;;;;;;7.93;7.13;;;;;;;23.53;63.00;101379.22;4991555;28;20471;-62
2023/06/10 07:27:25;;;;;;;8.63;6.75;;;;;;;23.62;62.68;101376.41;4990777;28;20117;-63
2023/06/10 07:29:51;;;;;;;7.55;6.85;;;;;;;23.71;63.33;101378.94;4991483;28;20493;-63
2023/06/10 07:32:17;;;;;;;10.10;7.60;;;;;;;23.81;63.64;101374.41;4991342;28;20121;-62
2023/06/10 07:34:42;;;;;;;11.38;7.13;;;;;;;23.88;61.69;101372.53;4991143;28;20393;-63
2023/06/10 07:37:08;;;;;;;8.00;6.85;;;;;;;24.00;61.80;101371.44;4991351;28;20029;-62
2023/06/10 07:39:34;;;;;;;7.05;6.25;;;;;;;24.15;61.15;101380.03;4991610;28;20038;-62
2023/06/10 07:41:59;;;;;;;7.13;6.43;;;;;;;24.27;59.44;101379.00;4991095;28;20418;-62
2023/06/10 07:44:24;;;;;;;7.93;6.65;;;;;;;24.40;59.71;101377.00;4991116;28;20052;-63
2023/06/10 07:46:50;;;;;;;6.68;5.93;;;;;;;24.54;60.14;101379.38;4991255;28;20030;-62
2023/06/10 07:49:15;;;;;;;7.47;6.47;;;;;;;24.66;57.74;101380.97;4991081;28;20454;-62
2023/06/10 07:51:40;;;;;;;6.90;6.20;;;;;;;24.75;56.51;101377.25;4991077;28;20030;-63
2023/06/10 07:54:05;;;;;;;7.05;6.35;;;;;;;24.86;56.10;101380.56;4990520;28;20026;-63
2023/06/10 07:56:31;;;;;;;6.00;5.45;;;;;;;24.98;56.21;101376.84;4991033;28;20026;-62
2023/06/10 07:58:57;;;;;;;7.50;6.57;;;;;;;25.11;55.56;101380.13;4990690;28;20085;-63
2023/06/10 08:01:23;;;;;;;5.82;5.25;;;;;;;25.32;57.17;101382.31;4990939;28;20019;-62
2023/06/10 08:03:48;;;;;;;7.72;6.28;;;;;;;25.41;54.86;101372.41;4990702;28;20022;-62
2023/06/10 08:06:14;;;;;;;6.50;5.90;;;;;;;25.53;54.07;101375.66;4991219;28;20085;-63
2023/06/10 08:08:43;;;;;;;6.45;5.72;;;;;;;25.66;53.53;101376.28;4990559;28;20473;-63
2023/06/10 08:11:12;;;;;;;7.22;5.50;;;;;;;25.83;54.06;101378.56;4990570;28;20104;-63
2023/06/10 08:13:37;;;;;;;6.78;5.47;;;;;;;25.97;51.84;101380.88;4990797;28;20030;-63
2023/06/10 08:16:04;;;;;;;5.38;4.88;;;;;;;26.10;51.68;101380.56;4990370;28;20031;-63
2023/06/10 08:18:29;;;;;;;6.13;5.50;;;;;;;26.25;50.84;101379.28;4990603;28;20390;-62
2023/06/10 08:20:55;;;;;;;6.38;5.78;;;;;;;26.37;51.00;101379.00;4990321;28;20018;-62
2023/06/10 08:23:20;;;;;;;5.63;5.13;;;;;;;26.48;49.97;101380.53;4989893;28;20033;-63
2023/06/10 08:25:45;;;;;;;6.10;5.50;;;;;;;26.61;48.25;101378.38;4990015;28;20102;-62
2023/06/10 08:28:11;;;;;;;6.28;5.65;;;;;;;26.73;47.87;101385.16;4988838;28;20025;-63
2023/06/10 08:30:36;;;;;;;7.25;5.20;;;;;;;26.84;47.33;101382.22;4989576;28;20034;-63
2023/06/10 08:33:01;;;;;;;5.30;4.80;;;;;;;26.95;47.09;101384.53;4989522;28;20081;-63
2023/06/10 08:35:26;;;;;;;6.00;5.45;;;;;;;26.98;47.95;101380.00;4989620;28;20110;-63
2023/06/10 08:37:52;;;;;;;8.15;5.47;;;;;;;27.12;47.05;101383.22;4989493;28;20033;-63
2023/06/10 08:40:17;;;;;;;5.72;5.05;;;;;;;27.25;47.25;101389.06;4989546;28;20022;-63
2023/06/10 08:42:48;;;;;;;9.15;5.22;;;;;;;27.31;44.95;101388.84;4988800;28;20023;-63
2023/06/10 08:45:20;;;;;;;6.25;5.65;;;;;;;27.34;44.56;101386.97;4989983;28;20262;-63
2023/06/10 08:47:49;;;;;;;6.85;5.22;;;;;;;27.38;43.61;101397.53;4989442;28;20029;-63
2023/06/10 08:50:16;;;;;;;5.47;4.80;;;;;;;27.42;43.26;101383.22;4988915;28;20530;-63
2023/06/10 08:52:44;;;;;;;5.90;5.40;;;;;;;27.40;43.45;101388.56;4988816;28;20034;-63
2023/06/10 08:55:22;;;;;;;7.15;5.47;;;;;;;27.48;43.80;101388.34;4989406;28;20109;-63
2023/06/10 08:57:48;;;;;;;6.05;5.45;;;;;;;27.63;46.07;101396.78;4989422;28;20577;-63
2023/06/10 09:00:16;;;;;;;5.78;5.18;;;;;;;27.70;43.51;101387.69;4988973;28;20036;-63
2023/06/10 09:02:42;;;;;;;4.82;4.43;;;;;;;27.91;45.07;101385.25;4989324;28;20033;-63
2023/06/10 09:05:09;;;;;;;5.72;5.22;;;;;;;28.10;43.72;101384.66;4989124;28;20037;-63
2023/06/10 09:07:36;;;;;;;6.75;6.05;;;;;;;28.09;41.79;101380.25;4989265;28;20034;-63
2023/06/10 09:10:03;;;;;;;6.38;5.78;;;;;;;28.14;42.97;101380.97;4989503;28;20053;-63
2023/06/10 09:12:29;;;;;;;5.78;5.20;;;;;;;28.25;43.27;101373.47;4988700;28;20080;-63
2023/06/10 09:14:55;;;;;;;5.53;4.90;;;;;;;28.36;43.74;101377.59;4988533;28;20485;-63
2023/06/10 09:17:20;;;;;;;5.35;4.55;;;;;;;28.53;44.69;101380.53;4988955;28;20121;-63
2023/06/10 09:19:46;;;;;;;7.10;5.22;;;;;;;28.63;44.06;101372.19;4988580;28;20484;-63
2023/06/10 09:22:11;;;;;;;5.72;4.78;;;;;;;28.71;43.37;101374.59;4988830;28;20065;-63
2023/06/10 09:24:38;;;;;;;6.05;5.30;;;;;;;28.81;42.16;101378.66;4986894;28;20466;-64
2023/06/10 09:27:06;;;;;;;6.07;5.13;;;;;;;28.91;42.42;101376.50;4988469;28;20037;-63
2023/06/10 09:29:31;;;;;;;7.18;5.40;;;;;;;29.05;41.97;101377.84;4988630;28;20106;-63
2023/06/10 09:31:57;;;;;;;5.75;5.00;;;;;;;29.12;41.20;101374.00;4987498;28;20102;-63
2023/06/10 09:34:25;;;;;;;7.47;4.95;;;;;;;29.12;40.92;101374.00;4987848;28;20729;-63
2023/06/10 09:36:51;;;;;;;6.18;5.18;;;;;;;29.20;41.00;101373.69;4987551;28;20049;-63
2023/06/10 09:39:18;;;;;;;7.45;5.32;;;;;;;29.22;40.77;101372.72;4987947;28;20449;-64
2023/06/10 09:41:45;;;;;;;6.15;5.30;;;;;;;29.31;40.92;101379.50;4988033;28;20133;-63
2023/06/10 09:44:15;;;;;;;6.78;5.05;;;;;;;29.40;40.76;101378.25;4988536;28;20069;-64
2023/06/10 09:46:41;;;;;;;6.15;5.13;;;;;;;29.42;40.09;101376.41;4988692;28;20030;-63
2023/06/10 09:49:06;;;;;;;5.18;4.68;;;;;;;29.54;39.98;101374.19;4987909;28;20041;-64
2023/06/10 09:51:32;;;;;;;6.18;5.45;;;;;;;29.58;39.90;101368.66;4988580;28;20356;-63
2023/06/10 09:53:58;;;;;;;6.25;5.03;;;;;;;29.68;41.06;101370.97;4988238;28;20490;-63
2023/06/10 09:56:37;;;;;;;5.65;5.07;;;;;;;29.73;37.87;101377.00;4988650;28;20394;-63
2023/06/10 09:59:04;;;;;;;7.20;5.15;;;;;;;29.76;39.45;101368.84;4988294;28;20398;-63
2023/06/10 10:01:30;;;;;;;5.43;4.88;;;;;;;29.92;42.42;101368.22;4988502;28;20030;-63
2023/06/10 10:03:56;;;;;;;5.07;4.68;;;;;;;30.05;41.51;101364.09;4988201;28;20490;-63
2023/06/10 10:06:21;;;;;;;6.57;5.45;;;;;;;30.13;37.77;101366.47;4988883;28;20061;-63
2023/06/10 10:08:49;;;;;;;5.43;4.93;;;;;;;30.18;38.79;101364.44;4988407;28;20030;-63
2023/06/10 10:11:17;;;;;;;9.57;5.35;;;;;;;30.19;37.87;101363.50;4988273;28;20030;-63
2023/06/10 10:13:45;;;;;;;8.10;5.15;;;;;;;30.21;37.87;101352.75;4988616;28;20026;-64
2023/06/10 10:16:15;;;;;;;5.72;4.78;;;;;;;30.30;40.32;101356.84;4988033;28;20026;-63
2023/06/10 10:18:43;;;;;;;7.22;4.93;;;;;;;30.38;39.25;101353.84;4988596;28;20083;-63
2023/06/10 10:21:12;;;;;;;5.82;4.78;;;;;;;30.46;39.53;101356.19;4987725;28;20027;-64
2023/06/10 10:23:49;;;;;;;6.63;4.70;;;;;;;30.54;39.16;101354.91;4988220;28;20060;-64
2023/06/10 10:26:16;;;;;;;8.80;5.22;;;;;;;30.70;39.90;101348.00;4987847;28;20430;-63
2023/06/10 10:28:47;;;;;;;5.25;4.65;;;;;;;30.77;39.33;101344.09;4988720;28;20026;-63
2023/06/10 10:31:16;;;;;;;5.85;5.25;;;;;;;30.75;37.31;101345.97;4988089;28;20034;-63
2023/06/10 10:33:51;;;;;;;6.43;4.93;;;;;;;30.78;37.80;101343.19;4988027;28;20930;-64
2023/06/10 10:36:19;;;;;;;5.97;4.65;;;;;;;30.74;38.33;101349.59;4988077;28;20050;-64
2023/06/10 10:38:47;;;;;;;7.22;5.03;;;;;;;30.72;37.19;101354.13;4988161;28;20289;-64
2023/06/10 10:41:13;;;;;;;6.32;5.30;;;;;;;30.64;38.34;101347.34;4988070;28;20176;-64
2023/06/10 10:43:40;;;;;;;5.90;4.70;;;;;;;30.73;38.60;101346.03;4987782;28;20197;-64
2023/06/10 10:46:11;;;;;;;8.35;5.18;;;;;;;30.86;38.16;101341.03;4988265;28;20650;-63
2023/06/10 10:48:40;;;;;;;7.60;5.20;;;;;;;30.99;37.78;101343.13;4987982;28;20153;-64
2023/06/10 10:51:06;;;;;;;5.95;4.78;;;;;;;30.90;37.21;101345.31;4989641;28;20117;-63
2023/06/10 10:53:31;;;;;;;6.15;5.32;;;;;;;30.89;37.11;101338.22;4991687;28;20034;-63
2023/06/10 10:56:07;;;;;;;5.50;4.95;;;;;;;30.97;39.46;101339.66;4991006;28;20049;-63
2023/06/10 10:58:33;;;;;;;6.00;5.20;;;;;;;31.09;37.98;101339.06;4991567;28;20054;-64
2023/06/10 11:00:58;;;;;;;6.00;5.50;;;;;;;31.06;35.95;101344.56;4991339;28;20027;-64
2023/06/10 11:03:29;;;;;;;5.40;4.93;;;;;;;31.02;35.93;101342.97;4991485;28;20058;-64
2023/06/10 11:05:56;;;;;;;;;;;;;;;30.86;36.37;101337.47;4991468;28;20482;-63
2023/06/10 11:08:30;;;;;;;7.07;5.00;;;;;;;30.85;35.51;101333.94;4991934;28;19936;-63
2023/06/10 11:10:56;;;;;;;5.57;5.05;;;;;;;30.84;35.07;101331.34;4990992;28;20026;-63
2023/06/10 11:13:22;;;;;;;5.60;5.20;;;;;;;30.75;35.14;101321.91;4991553;28;20378;-63
2023/06/10 11:15:49;;;;;;;5.13;4.63;;;;;;;30.88;37.65;101336.50;4991274;28;20448;-64
2023/06/10 11:18:21;;;;;;;5.47;5.03;;;;;;;31.01;35.95;101328.75;4991234;28;20026;-63